N012SB EGJJ-EGLC
Flight info
| Callsign | N012SB |
|---|---|
| Flight time | N/A |
| Altitude | 18000 |
| Route | BENIX G27 NEVIL DCT SRH DCT OTSID DCT BIG |
| Aircraft | PC12/L-SDFGRWY/S |
Departure
| Time | 2026-01-18 12:53 |
|---|---|
| Airport | Jersey Airport (EGJJ) |
Arrival
| Time | N/A |
|---|---|
| Airport | London City Airport (EGLC) |
| Time | Latitude | Longitude | Altitude | Speed | Heading |
|---|---|---|---|---|---|
| 2026-01-18 12:47 | 49.20678 | -2.20496 | 276 ft | 0 kts | 83° |
| 2026-01-18 12:51 | 49.20684 | -2.20477 | 276 ft | 12 kts | 50° |
| 2026-01-18 12:51 | 49.20647 | -2.19231 | 471 ft | 82 kts | 98° |
| 2026-01-18 12:52 | 49.21835 | -2.16885 | 1473 ft | 123 kts | 50° |
| 2026-01-18 12:53 | 49.22092 | -2.14418 | 2474 ft | 123 kts | 104° |
| 2026-01-18 12:53 | 49.22058 | -2.13187 | 3221 ft | 109 kts | 92° |
| 2026-01-18 12:53 | 49.22439 | -2.11807 | 3668 ft | 135 kts | 77° |
| 2026-01-18 12:54 | 49.23631 | -2.09242 | 4850 ft | 148 kts | 65° |
| 2026-01-18 12:54 | 49.24945 | -2.05924 | 5007 ft | 214 kts | 65° |
| 2026-01-18 12:55 | 49.26537 | -2.01676 | 5006 ft | 241 kts | 65° |
| 2026-01-18 12:56 | 49.29958 | -1.92346 | 5004 ft | 257 kts | 65° |
| 2026-01-18 12:56 | 49.30827 | -1.89957 | 4999 ft | 258 kts | 65° |
| 2026-01-18 12:57 | 49.32566 | -1.85163 | 5000 ft | 260 kts | 65° |
| 2026-01-18 12:57 | 49.35224 | -1.81383 | 3712 ft | 298 kts | 25° |
| 2026-01-18 12:58 | 49.38833 | -1.79720 | 4424 ft | 263 kts | 4° |
| 2026-01-18 12:58 | 49.42378 | -1.79364 | 4653 ft | 255 kts | 31° |
| 2026-01-18 12:59 | 49.44511 | -1.75323 | 4913 ft | 246 kts | 64° |
| 2026-01-18 12:59 | 49.46297 | -1.70758 | 4987 ft | 253 kts | 63° |
| 2026-01-18 13:00 | 49.50053 | -1.61373 | 4996 ft | 261 kts | 62° |
| 2026-01-18 13:01 | 49.52034 | -1.56699 | 4994 ft | 261 kts | 61° |
| 2026-01-18 13:01 | 49.54021 | -1.52068 | 4998 ft | 261 kts | 61° |
| 2026-01-18 13:02 | 49.56044 | -1.47407 | 5003 ft | 262 kts | 60° |
| 2026-01-18 13:02 | 49.58090 | -1.42742 | 4999 ft | 263 kts | 60° |
| 2026-01-18 13:03 | 49.60153 | -1.38081 | 5001 ft | 263 kts | 60° |
| 2026-01-18 13:03 | 49.62215 | -1.33456 | 4996 ft | 263 kts | 60° |
| 2026-01-18 13:03 | 49.63252 | -1.31143 | 4997 ft | 262 kts | 60° |
| 2026-01-18 13:04 | 49.66385 | -1.24206 | 4996 ft | 262 kts | 59° |
| 2026-01-18 13:05 | 49.68486 | -1.19600 | 4996 ft | 263 kts | 59° |
| 2026-01-18 13:05 | 49.70585 | -1.15024 | 4997 ft | 263 kts | 59° |
| 2026-01-18 13:06 | 49.72711 | -1.10424 | 5005 ft | 262 kts | 59° |
| 2026-01-18 13:06 | 49.73770 | -1.08140 | 5050 ft | 261 kts | 59° |
| 2026-01-18 13:06 | 49.75894 | -1.03561 | 5034 ft | 263 kts | 59° |
| 2026-01-18 13:07 | 49.78027 | -0.99010 | 5030 ft | 263 kts | 59° |
| 2026-01-18 13:07 | 49.80188 | -0.94442 | 5029 ft | 263 kts | 59° |
| 2026-01-18 13:08 | 49.83467 | -0.87599 | 5038 ft | 264 kts | 59° |
| 2026-01-18 13:09 | 49.85675 | -0.83045 | 5048 ft | 264 kts | 58° |
| 2026-01-18 13:09 | 49.87885 | -0.78532 | 5049 ft | 265 kts | 58° |
| 2026-01-18 13:09 | 49.89007 | -0.76259 | 5050 ft | 265 kts | 58° |
| 2026-01-18 13:10 | 49.91259 | -0.71723 | 5044 ft | 266 kts | 58° |
| 2026-01-18 13:10 | 49.93092 | -0.67068 | 5260 ft | 223 kts | 118° |
| 2026-01-18 13:11 | 49.90612 | -0.65049 | 5623 ft | 216 kts | 180° |
| 2026-01-18 13:11 | 49.88016 | -0.67574 | 5624 ft | 246 kts | 232° |
| 2026-01-18 13:12 | 49.88599 | -0.75638 | 5399 ft | 283 kts | 307° |
| 2026-01-18 13:13 | 49.92093 | -0.78274 | 5229 ft | 285 kts | 358° |
| 2026-01-18 13:13 | 49.95823 | -0.80017 | 5122 ft | 285 kts | 318° |
| 2026-01-18 13:13 | 49.97115 | -0.82252 | 5059 ft | 281 kts | 304° |
| 2026-01-18 13:14 | 49.99419 | -0.87232 | 4679 ft | 288 kts | 302° |
| 2026-01-18 13:14 | 50.01585 | -0.91981 | 5732 ft | 246 kts | 301° |
| 2026-01-18 13:15 | 50.03991 | -0.95070 | 7213 ft | 224 kts | 354° |
| 2026-01-18 13:15 | 50.06962 | -0.94871 | 8728 ft | 208 kts | 7° |
| 2026-01-18 13:16 | 50.11112 | -0.94277 | 10978 ft | 195 kts | 7° |
| 2026-01-18 13:17 | 50.13616 | -0.93351 | 12493 ft | 175 kts | 51° |
| 2026-01-18 13:17 | 50.14405 | -0.91988 | 13282 ft | 167 kts | 58° |
| 2026-01-18 13:17 | 50.15893 | -0.89257 | 14653 ft | 164 kts | 58° |
| 2026-01-18 13:18 | 50.17363 | -0.86558 | 15937 ft | 165 kts | 58° |
| 2026-01-18 13:18 | 50.18846 | -0.83830 | 17247 ft | 165 kts | 58° |
| 2026-01-18 13:19 | 50.20391 | -0.80947 | 18058 ft | 200 kts | 59° |
| 2026-01-18 13:19 | 50.22326 | -0.77016 | 18065 ft | 252 kts | 59° |
| 2026-01-18 13:20 | 50.24516 | -0.72375 | 18066 ft | 279 kts | 59° |
| 2026-01-18 13:21 | 50.27412 | -0.64377 | 18057 ft | 282 kts | 84° |
| 2026-01-18 13:21 | 50.28021 | -0.58280 | 18063 ft | 285 kts | 87° |
| 2026-01-18 13:21 | 50.28290 | -0.55197 | 18062 ft | 287 kts | 88° |
| 2026-01-18 13:22 | 50.29081 | -0.45942 | 18061 ft | 288 kts | 88° |
| 2026-01-18 13:22 | 50.29343 | -0.42833 | 18062 ft | 289 kts | 88° |
| 2026-01-18 13:23 | 50.29860 | -0.36604 | 18063 ft | 289 kts | 88° |
| 2026-01-18 13:23 | 50.31555 | -0.31014 | 18055 ft | 306 kts | 38° |
| 2026-01-18 13:24 | 50.37607 | -0.31628 | 18063 ft | 306 kts | 336° |
| 2026-01-18 13:25 | 50.41728 | -0.33325 | 18058 ft | 308 kts | 353° |
| 2026-01-18 13:25 | 50.45954 | -0.34371 | 18062 ft | 307 kts | 352° |
| 2026-01-18 13:26 | 50.50101 | -0.33006 | 18064 ft | 307 kts | 19° |
| 2026-01-18 13:26 | 50.54271 | -0.31787 | 18066 ft | 309 kts | 1° |
| 2026-01-18 13:26 | 50.56422 | -0.31776 | 18067 ft | 309 kts | 359° |
| 2026-01-18 13:27 | 50.62871 | -0.31212 | 18079 ft | 310 kts | 4° |
| 2026-01-18 13:28 | 50.65026 | -0.31024 | 18079 ft | 310 kts | 2° |
| 2026-01-18 13:28 | 50.71361 | -0.30466 | 18589 ft | 297 kts | 3° |
| 2026-01-18 13:29 | 50.75397 | -0.30100 | 19175 ft | 288 kts | 3° |
| 2026-01-18 13:29 | 50.79543 | -0.29723 | 19030 ft | 306 kts | 3° |
| 2026-01-18 13:30 | 50.83849 | -0.29307 | 18922 ft | 312 kts | 6° |
| 2026-01-18 13:30 | 50.88176 | -0.28503 | 18839 ft | 315 kts | 6° |
| 2026-01-18 13:31 | 50.92532 | -0.27710 | 18810 ft | 315 kts | 7° |
| 2026-01-18 13:31 | 50.96853 | -0.26899 | 18808 ft | 314 kts | 6° |
| 2026-01-18 13:32 | 50.99019 | -0.26501 | 18810 ft | 314 kts | 6° |
| 2026-01-18 13:32 | 51.05740 | -0.25246 | 17806 ft | 339 kts | 7° |
| 2026-01-18 13:33 | 51.10489 | -0.24361 | 16852 ft | 346 kts | 6° |
| 2026-01-18 13:33 | 51.15247 | -0.23406 | 15937 ft | 346 kts | 12° |
| 2026-01-18 13:34 | 51.19253 | -0.19811 | 15865 ft | 322 kts | 48° |
| 2026-01-18 13:34 | 51.22285 | -0.14736 | 15867 ft | 312 kts | 50° |
| 2026-01-18 13:35 | 51.26717 | -0.07283 | 15868 ft | 306 kts | 50° |
| 2026-01-18 13:36 | 51.29631 | -0.02367 | 15868 ft | 304 kts | 50° |
| 2026-01-18 13:36 | 51.34624 | 0.03564 | 15869 ft | 308 kts | 12° |
| 2026-01-18 13:37 | 51.38874 | 0.04163 | 15874 ft | 307 kts | 3° |
| 2026-01-18 13:37 | 51.41006 | 0.04391 | 15869 ft | 308 kts | 3° |
| 2026-01-18 13:38 | 51.45282 | 0.04910 | 15876 ft | 308 kts | 4° |
| 2026-01-18 13:38 | 51.49568 | 0.05410 | 15875 ft | 309 kts | 4° |
| 2026-01-18 13:39 | 51.55014 | 0.09311 | 15863 ft | 296 kts | 70° |
| 2026-01-18 13:39 | 51.54550 | 0.15210 | 15869 ft | 267 kts | 136° |
| 2026-01-18 13:40 | 51.53094 | 0.16946 | 15872 ft | 259 kts | 154° |
| 2026-01-18 13:40 | 51.48117 | 0.20265 | 15865 ft | 258 kts | 164° |
| 2026-01-18 13:41 | 51.44654 | 0.21764 | 15864 ft | 257 kts | 170° |
| 2026-01-18 13:41 | 51.42903 | 0.22326 | 15868 ft | 257 kts | 170° |
| 2026-01-18 13:42 | 51.37665 | 0.24111 | 15870 ft | 258 kts | 170° |
| 2026-01-18 13:42 | 51.34153 | 0.25314 | 15872 ft | 259 kts | 170° |
| 2026-01-18 13:43 | 51.30631 | 0.26520 | 15871 ft | 259 kts | 169° |
| 2026-01-18 13:43 | 51.27134 | 0.27753 | 15871 ft | 259 kts | 169° |
| 2026-01-18 13:44 | 51.21859 | 0.29703 | 15870 ft | 260 kts | 168° |
| 2026-01-18 13:44 | 51.20197 | 0.30831 | 15713 ft | 269 kts | 146° |
| 2026-01-18 13:45 | 51.18735 | 0.36483 | 15146 ft | 301 kts | 95° |
| 2026-01-18 13:45 | 51.18845 | 0.39872 | 14703 ft | 311 kts | 89° |
| 2026-01-18 13:46 | 51.19459 | 0.50631 | 12553 ft | 332 kts | 92° |
| 2026-01-18 13:46 | 51.19419 | 0.57924 | 11085 ft | 330 kts | 96° |
| 2026-01-18 13:47 | 51.20504 | 0.64949 | 9602 ft | 344 kts | 57° |
| 2026-01-18 13:47 | 51.22329 | 0.67437 | 8811 ft | 350 kts | 31° |
| 2026-01-18 13:48 | 51.27051 | 0.68940 | 7328 ft | 346 kts | 2° |
| 2026-01-18 13:48 | 51.34059 | 0.69334 | 6148 ft | 320 kts | 1° |
| 2026-01-18 13:49 | 51.36216 | 0.69451 | 6130 ft | 308 kts | 1° |
| 2026-01-18 13:49 | 51.42457 | 0.69809 | 5730 ft | 304 kts | 1° |
| 2026-01-18 13:50 | 51.46645 | 0.69057 | 4589 ft | 306 kts | 329° |
| 2026-01-18 13:50 | 51.48170 | 0.66800 | 4077 ft | 295 kts | 299° |
| 2026-01-18 13:51 | 51.48571 | 0.60756 | 3403 ft | 270 kts | 255° |
| 2026-01-18 13:51 | 51.47677 | 0.55016 | 3133 ft | 258 kts | 252° |
| 2026-01-18 13:52 | 51.46781 | 0.49559 | 3027 ft | 255 kts | 252° |
| 2026-01-18 13:52 | 51.45449 | 0.41441 | 3054 ft | 249 kts | 252° |
| 2026-01-18 13:53 | 51.44569 | 0.36078 | 3036 ft | 248 kts | 252° |
| 2026-01-18 13:53 | 51.43692 | 0.30754 | 3040 ft | 247 kts | 252° |
| 2026-01-18 13:54 | 51.42815 | 0.25421 | 3034 ft | 247 kts | 252° |
| 2026-01-18 13:55 | 51.43280 | 0.14547 | 3037 ft | 252 kts | 276° |
| 2026-01-18 13:55 | 51.43520 | 0.11772 | 3049 ft | 251 kts | 273° |
| 2026-01-18 13:56 | 51.43935 | 0.06099 | 2570 ft | 264 kts | 273° |
| 2026-01-18 13:56 | 51.44484 | -0.01689 | 2062 ft | 258 kts | 273° |
| 2026-01-18 13:57 | 51.44891 | -0.07361 | 2059 ft | 254 kts | 273° |
| 2026-01-18 13:57 | 51.45090 | -0.10160 | 2066 ft | 252 kts | 272° |
| 2026-01-18 13:57 | 51.45504 | -0.15745 | 2067 ft | 252 kts | 273° |
| 2026-01-18 13:58 | 51.45961 | -0.22227 | 2062 ft | 251 kts | 272° |
| 2026-01-18 13:58 | 51.46713 | -0.26660 | 2052 ft | 257 kts | 303° |
| 2026-01-18 13:59 | 51.49964 | -0.28659 | 2053 ft | 265 kts | 6° |
| 2026-01-18 14:00 | 51.55487 | -0.21355 | 2029 ft | 259 kts | 56° |
| 2026-01-18 14:00 | 51.55671 | -0.18796 | 2315 ft | 221 kts | 110° |
| 2026-01-18 14:01 | 51.56437 | -0.13705 | 1928 ft | 255 kts | 78° |
| 2026-01-18 14:01 | 51.56244 | -0.11012 | 1711 ft | 245 kts | 117° |
| 2026-01-18 14:02 | 51.54805 | -0.04152 | 1309 ft | 187 kts | 116° |
| 2026-01-18 14:02 | 51.53170 | -0.00978 | 1301 ft | 189 kts | 137° |
| 2026-01-18 14:03 | 51.51349 | 0.02117 | 715 ft | 198 kts | 126° |
| 2026-01-18 14:03 | 51.50558 | 0.03999 | 330 ft | 203 kts | 96° |